Airport View

Enter AWOS ICAO identifier for current METAR.

ex. KFNL

KCQT 202152Z AUTO 5SM HZ CLR 24/16 A2980 RMK AO2 SLP087 T02440156 $

20 Oct 2020 22:36

Other Area AWOS: KHHR - KLAX - KSMO - KBUR

TAF AMD KLAX 202104Z 2021/2124 24009KT 6SM HZ FEW020 FM210300 26006KT P6SM OVC009 FM210900 VRB03KT P6SM OVC012 FM211600 26005KT P6SM OVC015 FM212000 26012KT P6SM SCT017